CES5810 ZSSS-ZPPP
Flight info
| Callsign | CES5810 |
|---|---|
| Flight time | N/A |
| Altitude | 34100 |
| Route | NXD61D NXD W131 AKDIM A470 SAGNU W132 OREXA DCT P395 DCT AVDIP W226 IPMUG W611 BIVAV W138 DYG W140 HUY A581 QNX W136 XISLI XISLI3C |
| Aircraft | A21N/M-SDE3FGHIRWY/LB1 |
Departure
| Time | 2026-05-04 11:45 |
|---|---|
| Airport | Shanghai Hongqiao International Airport (ZSSS) |
Arrival
| Time | N/A |
|---|---|
| Airport | Kunming Changshui International Airport (ZPPP) |
| Time | Latitude | Longitude | Altitude | Speed | Heading |
|---|---|---|---|---|---|
| 2026-05-04 11:27 | 31.20076 | 121.32420 | 28 ft | 0 kts | 267° |
| 2026-05-04 11:36 | 31.20076 | 121.32435 | 29 ft | 2 kts | 267° |
| 2026-05-04 11:36 | 31.20077 | 121.32452 | 29 ft | 2 kts | 268° |
| 2026-05-04 11:36 | 31.20078 | 121.32470 | 29 ft | 2 kts | 267° |
| 2026-05-04 11:36 | 31.20078 | 121.32488 | 29 ft | 2 kts | 268° |
| 2026-05-04 11:37 | 31.20079 | 121.32503 | 30 ft | 0 kts | 267° |
| 2026-05-04 11:37 | 31.20080 | 121.32516 | 30 ft | 2 kts | 238° |
| 2026-05-04 11:37 | 31.20092 | 121.32526 | 30 ft | 2 kts | 191° |
| 2026-05-04 11:37 | 31.20099 | 121.32526 | 30 ft | 1 kts | 171° |
| 2026-05-04 11:38 | 31.20103 | 121.32526 | 30 ft | 0 kts | 177° |
| 2026-05-04 11:40 | 31.20102 | 121.32526 | 30 ft | 1 kts | 177° |
| 2026-05-04 11:41 | 31.20073 | 121.32534 | 30 ft | 7 kts | 151° |
| 2026-05-04 11:41 | 31.20053 | 121.32613 | 29 ft | 13 kts | 89° |
| 2026-05-04 11:41 | 31.20057 | 121.32749 | 28 ft | 19 kts | 84° |
| 2026-05-04 11:41 | 31.20065 | 121.32924 | 29 ft | 23 kts | 88° |
| 2026-05-04 11:42 | 31.20147 | 121.33030 | 30 ft | 17 kts | 359° |
| 2026-05-04 11:42 | 31.20261 | 121.33031 | 31 ft | 16 kts | 358° |
| 2026-05-04 11:42 | 31.20375 | 121.33025 | 33 ft | 17 kts | 356° |
| 2026-05-04 11:42 | 31.20510 | 121.33017 | 32 ft | 21 kts | 357° |
| 2026-05-04 11:43 | 31.20668 | 121.33008 | 31 ft | 24 kts | 357° |
| 2026-05-04 11:43 | 31.20850 | 121.32999 | 28 ft | 26 kts | 356° |
| 2026-05-04 11:43 | 31.21033 | 121.32988 | 27 ft | 26 kts | 357° |
| 2026-05-04 11:43 | 31.21153 | 121.33037 | 26 ft | 16 kts | 77° |
| 2026-05-04 11:44 | 31.21135 | 121.33164 | 26 ft | 16 kts | 144° |
| 2026-05-04 11:44 | 31.21022 | 121.33181 | 27 ft | 20 kts | 178° |
| 2026-05-04 11:44 | 31.20667 | 121.33201 | 31 ft | 85 kts | 178° |
| 2026-05-04 11:44 | 31.19850 | 121.33244 | 30 ft | 146 kts | 177° |
| 2026-05-04 11:45 | 31.18672 | 121.33311 | 190 ft | 180 kts | 174° |
| 2026-05-04 11:45 | 31.17424 | 121.33435 | 740 ft | 185 kts | 175° |
| 2026-05-04 11:45 | 31.16089 | 121.33499 | 1296 ft | 196 kts | 178° |
| 2026-05-04 11:45 | 31.14688 | 121.33536 | 1751 ft | 212 kts | 178° |
| 2026-05-04 11:46 | 31.13118 | 121.33584 | 2078 ft | 235 kts | 177° |
| 2026-05-04 11:46 | 31.11416 | 121.33649 | 2512 ft | 252 kts | 177° |
| 2026-05-04 11:46 | 31.09631 | 121.33725 | 3162 ft | 261 kts | 177° |
| 2026-05-04 11:46 | 31.07818 | 121.33795 | 3952 ft | 264 kts | 181° |
| 2026-05-04 11:47 | 31.06035 | 121.33324 | 4623 ft | 268 kts | 210° |
| 2026-05-04 11:47 | 31.04646 | 121.31892 | 5323 ft | 268 kts | 238° |
| 2026-05-04 11:47 | 31.03998 | 121.29887 | 6098 ft | 265 kts | 266° |
| 2026-05-04 11:47 | 31.04175 | 121.27794 | 6884 ft | 263 kts | 284° |
| 2026-05-04 11:48 | 31.04590 | 121.25712 | 7660 ft | 265 kts | 284° |
| 2026-05-04 11:48 | 31.04986 | 121.23628 | 8368 ft | 269 kts | 284° |
| 2026-05-04 11:48 | 31.05382 | 121.21491 | 9120 ft | 271 kts | 284° |
| 2026-05-04 11:48 | 31.05775 | 121.19357 | 9843 ft | 274 kts | 285° |
| 2026-05-04 11:49 | 31.06175 | 121.17192 | 10478 ft | 277 kts | 284° |
| 2026-05-04 11:49 | 31.06585 | 121.14926 | 10847 ft | 293 kts | 282° |
| 2026-05-04 11:49 | 31.06722 | 121.12501 | 11167 ft | 312 kts | 270° |
| 2026-05-04 11:49 | 31.06386 | 121.09917 | 11456 ft | 332 kts | 258° |
| 2026-05-04 11:50 | 31.05753 | 121.07261 | 11746 ft | 348 kts | 256° |
| 2026-05-04 11:50 | 31.05059 | 121.04514 | 12007 ft | 363 kts | 256° |
| 2026-05-04 11:50 | 31.04328 | 121.01624 | 12261 ft | 378 kts | 256° |
| 2026-05-04 11:50 | 31.03571 | 120.98619 | 12535 ft | 391 kts | 256° |
| 2026-05-04 11:51 | 31.02806 | 120.95570 | 12882 ft | 401 kts | 256° |
| 2026-05-04 11:51 | 31.02024 | 120.92442 | 13431 ft | 404 kts | 256° |
| 2026-05-04 11:51 | 31.01239 | 120.89300 | 13994 ft | 407 kts | 256° |
| 2026-05-04 11:51 | 31.00445 | 120.86116 | 14572 ft | 409 kts | 256° |
| 2026-05-04 11:52 | 30.99645 | 120.82912 | 15148 ft | 410 kts | 256° |
| 2026-05-04 11:52 | 30.98850 | 120.79724 | 15699 ft | 412 kts | 256° |
| 2026-05-04 11:52 | 30.98061 | 120.76556 | 16245 ft | 414 kts | 256° |
| 2026-05-04 11:52 | 30.97252 | 120.73319 | 16798 ft | 415 kts | 256° |
| 2026-05-04 11:53 | 30.96451 | 120.70110 | 17345 ft | 416 kts | 256° |
| 2026-05-04 11:53 | 30.95643 | 120.66878 | 17832 ft | 418 kts | 256° |
| 2026-05-04 11:53 | 30.94829 | 120.63624 | 18290 ft | 420 kts | 256° |
| 2026-05-04 11:53 | 30.94014 | 120.60373 | 18774 ft | 420 kts | 256° |
| 2026-05-04 11:55 | 30.85129 | 120.39308 | 21919 ft | 440 kts | 221° |
| 2026-05-04 11:55 | 30.82638 | 120.37244 | 22323 ft | 440 kts | 220° |
| 2026-05-04 11:56 | 30.80153 | 120.35205 | 22680 ft | 442 kts | 221° |
| 2026-05-04 11:56 | 30.77629 | 120.33137 | 23035 ft | 443 kts | 220° |
| 2026-05-04 11:56 | 30.75103 | 120.31067 | 23375 ft | 444 kts | 220° |
| 2026-05-04 11:56 | 30.72590 | 120.29005 | 23776 ft | 444 kts | 220° |
| 2026-05-04 11:57 | 30.70073 | 120.26942 | 24310 ft | 440 kts | 221° |
| 2026-05-04 11:57 | 30.67591 | 120.24908 | 24865 ft | 435 kts | 221° |
| 2026-05-04 11:57 | 30.65127 | 120.22885 | 25379 ft | 431 kts | 221° |
| 2026-05-04 11:57 | 30.62699 | 120.20895 | 25876 ft | 428 kts | 221° |
| 2026-05-04 11:58 | 30.60281 | 120.18912 | 26390 ft | 423 kts | 221° |
| 2026-05-04 11:58 | 30.57911 | 120.16968 | 26873 ft | 419 kts | 221° |
| 2026-05-04 11:58 | 30.55537 | 120.15020 | 27338 ft | 416 kts | 221° |
| 2026-05-04 11:58 | 30.53177 | 120.13089 | 27792 ft | 412 kts | 222° |
| 2026-05-04 11:59 | 30.50859 | 120.11190 | 28226 ft | 409 kts | 222° |
| 2026-05-04 11:59 | 30.48541 | 120.09296 | 28640 ft | 406 kts | 222° |
| 2026-05-04 11:59 | 30.46246 | 120.07420 | 29016 ft | 404 kts | 222° |
| 2026-05-04 11:59 | 30.43933 | 120.05605 | 29429 ft | 402 kts | 220° |
| 2026-05-04 12:00 | 30.41526 | 120.03909 | 29828 ft | 402 kts | 218° |
| 2026-05-04 12:00 | 30.39110 | 120.02303 | 30152 ft | 400 kts | 218° |
| 2026-05-04 12:00 | 30.36730 | 120.00710 | 30463 ft | 398 kts | 218° |
| 2026-05-04 12:00 | 30.34340 | 119.99105 | 30732 ft | 397 kts | 219° |
| 2026-05-04 12:01 | 30.31927 | 119.97489 | 31024 ft | 396 kts | 218° |
| 2026-05-04 12:01 | 30.29575 | 119.95918 | 31269 ft | 396 kts | 219° |
| 2026-05-04 12:02 | 30.15373 | 119.86464 | 32651 ft | 392 kts | 219° |
| 2026-05-04 12:03 | 30.13013 | 119.84884 | 32818 ft | 391 kts | 220° |
| 2026-05-04 12:03 | 30.10732 | 119.83202 | 32976 ft | 388 kts | 222° |
| 2026-05-04 12:03 | 30.08543 | 119.81399 | 33163 ft | 384 kts | 225° |
| 2026-05-04 12:03 | 30.06441 | 119.79473 | 33326 ft | 381 kts | 228° |
| 2026-05-04 12:04 | 30.04477 | 119.77460 | 33435 ft | 379 kts | 231° |
| 2026-05-04 12:04 | 30.02629 | 119.75281 | 33510 ft | 377 kts | 234° |
| 2026-05-04 12:04 | 30.00939 | 119.73002 | 33621 ft | 375 kts | 237° |
| 2026-05-04 12:04 | 29.99374 | 119.70599 | 33726 ft | 373 kts | 240° |
| 2026-05-04 12:05 | 29.97851 | 119.68152 | 33828 ft | 374 kts | 240° |
| 2026-05-04 12:05 | 29.96342 | 119.65717 | 33894 ft | 374 kts | 239° |
| 2026-05-04 12:05 | 29.93338 | 119.60857 | 34076 ft | 374 kts | 240° |
| 2026-05-04 12:06 | 29.90309 | 119.55947 | 34215 ft | 375 kts | 239° |
| 2026-05-04 12:06 | 29.87288 | 119.51047 | 34220 ft | 376 kts | 239° |
| 2026-05-04 12:07 | 29.84254 | 119.46130 | 34218 ft | 376 kts | 240° |
| 2026-05-04 12:07 | 29.81227 | 119.41228 | 34209 ft | 376 kts | 240° |
| 2026-05-04 12:08 | 29.78178 | 119.36297 | 34215 ft | 377 kts | 240° |
| 2026-05-04 12:08 | 29.75115 | 119.31343 | 34223 ft | 377 kts | 239° |
| 2026-05-04 12:09 | 29.72072 | 119.26428 | 34220 ft | 377 kts | 239° |
| 2026-05-04 12:09 | 29.69065 | 119.21532 | 34223 ft | 376 kts | 241° |
| 2026-05-04 12:10 | 29.66356 | 119.16421 | 34219 ft | 373 kts | 245° |
| 2026-05-04 12:10 | 29.64052 | 119.11089 | 34216 ft | 372 kts | 249° |
| 2026-05-04 12:11 | 29.62129 | 119.05589 | 34215 ft | 371 kts | 251° |
| 2026-05-04 12:11 | 29.60275 | 119.00078 | 34218 ft | 370 kts | 251° |
| 2026-05-04 12:12 | 29.58430 | 118.94576 | 34209 ft | 371 kts | 251° |
| 2026-05-04 12:12 | 29.56585 | 118.89061 | 34201 ft | 369 kts | 251° |
| 2026-05-04 12:14 | 29.49214 | 118.67071 | 34196 ft | 370 kts | 251° |
| 2026-05-04 12:15 | 29.47362 | 118.61568 | 34203 ft | 370 kts | 252° |
| 2026-05-04 12:15 | 29.45494 | 118.56031 | 34212 ft | 370 kts | 252° |
| 2026-05-04 12:16 | 29.43653 | 118.50565 | 34219 ft | 369 kts | 251° |
| 2026-05-04 12:16 | 29.41793 | 118.45067 | 34225 ft | 370 kts | 251° |
| 2026-05-04 12:17 | 29.39940 | 118.39593 | 34231 ft | 369 kts | 251° |
| 2026-05-04 12:17 | 29.38092 | 118.34145 | 34243 ft | 370 kts | 251° |
| 2026-05-04 12:18 | 29.36221 | 118.28633 | 34241 ft | 370 kts | 251° |
| 2026-05-04 12:18 | 29.34669 | 118.24068 | 34242 ft | 369 kts | 251° |